Time;durP1;ratioP1;P1;durP2;ratioP2;P2;SDS_P1;SDS_P2;PMS_P1;PMS_P2;Temp;Humidity;BMP_temperature;BMP_pressure;BME280_temperature;BME280_humidity;BME280_pressure;Samples;Min_cycle;Max_cycle;Signal;HPM_P1;HPM_P2
2022/12/07 00:01:17;;;;;;;4.95;0.70;;;3.50;99.90;;;;;;4799215;29;20209;-81
2022/12/07 00:03:44;;;;;;;3.67;0.63;;;3.50;99.90;;;;;;4797721;29;20076;-81
2022/12/07 00:06:12;;;;;;;3.85;0.85;;;3.50;99.90;;;;;;4793672;29;20125;-83
2022/12/07 00:08:37;;;;;;;9.57;1.60;;;3.40;99.90;;;;;;4809609;29;20095;-82
2022/12/07 00:11:08;;;;;;;6.53;0.85;;;3.40;99.90;;;;;;4794683;29;20129;-82
2022/12/07 00:13:35;;;;;;;12.68;1.80;;;3.40;99.90;;;;;;4842633;29;20046;-83
2022/12/07 00:16:03;;;;;;;7.07;0.90;;;3.40;99.90;;;;;;4823764;29;20065;-81
2022/12/07 00:18:28;;;;;;;6.72;0.98;;;3.40;99.90;;;;;;4811296;29;20054;-81
2022/12/07 00:21:03;;;;;;;6.45;0.85;;;3.40;99.90;;;;;;4796540;29;20046;-82
2022/12/07 00:23:29;;;;;;;7.07;1.05;;;3.50;99.90;;;;;;4796776;29;20084;-81
2022/12/07 00:25:54;;;;;;;7.03;0.82;;;3.50;99.90;;;;;;4811880;29;20070;-81
2022/12/07 00:28:20;;;;;;;9.25;0.70;;;3.50;99.90;;;;;;4828041;29;20049;-83
2022/12/07 00:30:45;;;;;;;6.72;0.98;;;3.50;99.90;;;;;;4814596;29;20135;-81
2022/12/07 00:33:11;;;;;;;7.88;0.80;;;3.50;99.90;;;;;;4809513;29;20050;-82
2022/12/07 00:35:36;;;;;;;8.45;1.00;;;3.60;99.90;;;;;;4792171;29;20053;-82
2022/12/07 00:38:02;;;;;;;8.25;1.45;;;3.50;99.90;;;;;;4812507;29;20050;-81
2022/12/07 00:40:27;;;;;;;9.25;0.90;;;3.60;99.90;;;;;;4814736;29;20041;-81
2022/12/07 00:42:53;;;;;;;10.60;0.93;;;3.60;99.90;;;;;;4813859;29;20054;-82
2022/12/07 00:45:19;;;;;;;5.88;0.80;;;3.60;99.90;;;;;;4814473;29;20061;-82
2022/12/07 00:47:44;;;;;;;9.10;1.38;;;3.80;99.90;;;;;;4811772;29;20561;-83
2022/12/07 00:50:10;;;;;;;9.68;1.13;;;3.50;99.90;;;;;;4807726;29;20141;-82
2022/12/07 00:52:35;;;;;;;14.18;1.77;;;3.50;99.90;;;;;;4810280;29;20126;-81
2022/12/07 00:55:01;;;;;;;7.85;1.27;;;3.50;99.90;;;;;;4813835;29;20049;-82
2022/12/07 00:57:26;;;;;;;8.90;0.95;;;3.50;99.90;;;;;;4812607;29;20054;-81
2022/12/07 00:59:55;;;;;;;11.57;1.75;;;3.50;99.90;;;;;;4791276;29;20046;-81
2022/12/07 01:02:22;;;;;;;7.32;1.52;;;3.50;99.90;;;;;;4813477;29;20054;-81
2022/12/07 01:04:47;;;;;;;11.13;2.42;;;3.60;99.90;;;;;;4823299;29;20078;-83
2022/12/07 01:07:13;;;;;;;9.13;1.05;;;3.60;99.90;;;;;;4796561;29;20545;-81
2022/12/07 01:09:38;;;;;;;4.63;0.85;;;3.70;99.90;;;;;;4809381;29;20043;-81
2022/12/07 01:12:04;;;;;;;6.13;0.82;;;3.60;99.90;;;;;;4811326;29;20034;-82
2022/12/07 01:14:29;;;;;;;11.98;1.15;;;3.60;99.90;;;;;;4811511;29;20175;-82
2022/12/07 01:16:55;;;;;;;5.72;0.60;;;3.60;99.90;;;;;;4813045;29;20050;-83
2022/12/07 01:19:21;;;;;;;9.07;0.80;;;3.60;99.90;;;;;;4816486;29;20105;-81
2022/12/07 01:21:46;;;;;;;8.00;0.80;;;3.60;99.90;;;;;;4813267;29;20430;-81
2022/12/07 01:24:12;;;;;;;8.13;1.08;;;3.70;99.90;;;;;;4808929;29;20391;-81
2022/12/07 01:26:37;;;;;;;8.38;0.80;;;3.70;99.90;;;;;;4796020;29;20666;-81
2022/12/07 01:29:04;;;;;;;7.75;0.95;;;3.70;99.90;;;;;;4812567;29;20126;-81
2022/12/07 01:31:29;;;;;;;5.25;0.60;;;3.80;99.90;;;;;;4812430;29;20046;-81
2022/12/07 01:33:57;;;;;;;12.27;1.27;;;3.80;99.90;;;;;;4813247;29;20099;-81
2022/12/07 01:36:29;;;;;;;6.35;0.57;;;3.80;99.90;;;;;;4839599;29;20073;-82
2022/12/07 01:38:57;;;;;;;9.02;1.45;;;3.90;99.90;;;;;;4797900;29;20054;-81
2022/12/07 01:41:26;;;;;;;10.25;2.15;;;3.80;99.90;;;;;;4787525;29;20111;-81
2022/12/07 01:44:19;;;;;;;6.45;0.60;;;3.90;99.90;;;;;;4813096;29;20042;-83
2022/12/07 01:46:49;;;;;;;7.82;0.80;;;3.90;99.90;;;;;;4813055;29;20075;-82
2022/12/07 01:49:41;;;;;;;11.30;0.93;;;3.90;99.90;;;;;;4814251;29;20038;-82
2022/12/07 01:52:27;;;;;;;11.20;1.15;;;3.90;99.90;;;;;;4793554;29;20054;-84
2022/12/07 01:54:57;;;;;;;8.18;1.45;;;3.90;99.90;;;;;;4794659;29;20042;-82
2022/12/07 01:57:23;;;;;;;7.15;0.95;;;3.90;99.90;;;;;;4809767;29;20053;-81
2022/12/07 01:59:51;;;;;;;4.50;0.50;;;3.90;99.90;;;;;;4811552;29;20073;-82
2022/12/07 02:02:25;;;;;;;6.07;0.40;;;3.90;99.90;;;;;;4809181;29;20054;-81
2022/12/07 02:04:53;;;;;;;7.85;0.38;;;3.80;99.90;;;;;;4814837;29;20386;-81
2022/12/07 02:07:19;;;;;;;5.70;0.52;;;3.80;99.90;;;;;;4807509;29;20054;-84
2022/12/07 02:09:45;;;;;;;6.13;0.50;;;3.80;99.90;;;;;;4811884;29;20069;-81
2022/12/07 02:12:10;;;;;;;4.65;0.45;;;3.80;99.90;;;;;;4793528;29;20088;-81
2022/12/07 02:14:36;;;;;;;7.03;0.50;;;3.80;99.90;;;;;;4811831;29;20079;-81
2022/12/07 02:17:05;;;;;;;6.47;1.40;;;3.70;99.90;;;;;;4797833;29;20072;-83
2022/12/07 02:19:42;;;;;;;5.32;0.80;;;3.70;99.90;;;;;;4810904;29;20039;-81
2022/12/07 02:22:27;;;;;;;6.05;1.08;;;3.60;99.90;;;;;;4825767;29;20571;-82
2022/12/07 02:25:31;;;;;;;8.52;1.05;;;3.60;99.90;;;;;;4814086;29;20046;-82
2022/12/07 02:28:06;;;;;;;12.57;2.78;;;3.60;99.90;;;;;;4817126;29;20510;-81
2022/12/07 02:30:37;;;;;;;6.05;2.85;;;3.50;99.90;;;;;;4798998;29;20072;-81
2022/12/07 02:33:14;;;;;;;6.63;3.35;;;3.50;99.90;;;;;;4812067;29;20196;-81
2022/12/07 02:35:48;;;;;;;11.70;4.10;;;3.50;99.90;;;;;;4811179;29;20406;-81
2022/12/07 02:38:38;;;;;;;7.45;3.30;;;3.60;99.90;;;;;;4814053;29;20048;-81
2022/12/07 02:41:15;;;;;;;11.50;4.28;;;3.50;99.90;;;;;;4813509;29;20042;-81
2022/12/07 02:44:03;;;;;;;11.80;3.17;;;3.50;99.90;;;;;;4809349;29;20046;-82
2022/12/07 02:46:40;;;;;;;10.50;3.95;;;3.50;99.90;;;;;;4800068;29;20107;-81
2022/12/07 02:49:08;;;;;;;12.25;4.20;;;3.60;99.90;;;;;;4811235;29;20110;-82
2022/12/07 02:51:38;;;;;;;10.55;3.30;;;3.60;99.90;;;;;;4813341;29;20038;-82
2022/12/07 02:54:12;;;;;;;7.18;2.88;;;3.60;99.90;;;;;;4829898;29;20046;-82
2022/12/07 02:57:02;;;;;;;12.32;2.97;;;3.70;99.90;;;;;;4812086;29;20080;-82
2022/12/07 03:00:06;;;;;;;11.75;2.53;;;3.70;99.90;;;;;;4812478;29;20111;-82
2022/12/07 03:02:47;;;;;;;6.28;2.00;;;3.60;99.90;;;;;;4818487;29;20049;-82
2022/12/07 03:05:31;;;;;;;9.30;2.33;;;3.70;99.90;;;;;;4813054;29;20076;-82
2022/12/07 03:08:24;;;;;;;6.90;1.75;;;3.60;99.90;;;;;;4816514;29;20050;-82
2022/12/07 03:11:04;;;;;;;9.55;1.33;;;3.60;99.90;;;;;;4846107;29;20170;-82
2022/12/07 03:13:50;;;;;;;7.57;0.82;;;3.60;99.90;;;;;;4814643;29;20045;-82
2022/12/07 03:16:19;;;;;;;7.82;0.95;;;3.60;99.90;;;;;;4797043;29;20049;-81
2022/12/07 03:19:10;;;;;;;9.07;1.85;;;3.60;99.90;;;;;;4797310;29;21663;-83
2022/12/07 03:21:47;;;;;;;5.93;1.00;;;3.70;99.90;;;;;;4811377;29;20046;-82
2022/12/07 03:24:19;;;;;;;7.28;1.05;;;3.70;99.90;;;;;;4813971;29;20046;-81
2022/12/07 03:26:49;;;;;;;8.77;1.20;;;3.80;99.90;;;;;;4794540;29;20034;-81
2022/12/07 03:29:24;;;;;;;8.07;0.80;;;3.80;99.90;;;;;;4797137;29;20129;-82
2022/12/07 03:32:20;;;;;;;8.00;1.05;;;3.80;99.90;;;;;;4808789;29;20046;-81
2022/12/07 03:34:56;;;;;;;7.85;0.60;;;3.80;99.90;;;;;;4792041;29;20482;-81
2022/12/07 03:37:33;;;;;;;7.40;0.60;;;3.70;99.90;;;;;;4809154;29;20046;-81
2022/12/07 03:40:01;;;;;;;9.07;1.13;;;3.70;99.90;;;;;;4812864;29;20144;-81
2022/12/07 03:42:27;;;;;;;9.50;0.60;;;3.60;99.90;;;;;;4812539;29;20053;-83
2022/12/07 03:44:53;;;;;;;6.22;0.75;;;3.60;99.90;;;;;;4816441;29;20058;-82
2022/12/07 03:47:32;;;;;;;6.45;0.32;;;3.60;99.90;;;;;;4811695;29;20045;-82
2022/12/07 03:50:11;;;;;;;6.45;0.85;;;3.60;99.90;;;;;;4812891;29;20080;-81
2022/12/07 03:52:48;;;;;;;6.75;0.82;;;3.60;99.90;;;;;;4812432;29;20060;-81
2022/12/07 03:55:24;;;;;;;;;;;3.60;99.90;;;;;;4828569;29;20046;-81
2022/12/07 03:57:54;;;;;;;5.57;0.90;;;3.50;99.90;;;;;;4842816;29;20452;-81
2022/12/07 04:00:20;;;;;;;9.43;0.52;;;3.50;99.90;;;;;;4812880;29;20128;-81
2022/12/07 04:02:47;;;;;;;6.40;0.43;;;3.50;99.90;;;;;;4810113;29;20133;-82
2022/12/07 04:05:12;;;;;;;5.57;0.40;;;3.40;99.90;;;;;;4812905;29;20142;-81
2022/12/07 04:07:38;;;;;;;3.92;0.40;;;3.40;99.90;;;;;;4810534;29;20480;-82
2022/12/07 04:10:07;;;;;;;8.25;1.08;;;3.40;99.90;;;;;;4813681;29;20137;-83
2022/12/07 04:12:33;;;;;;;7.38;0.52;;;3.40;99.90;;;;;;4814696;29;20055;-81
2022/12/07 04:14:58;;;;;;;6.22;0.60;;;3.50;99.90;;;;;;4812795;29;20062;-82
2022/12/07 04:17:24;;;;;;;9.60;1.13;;;3.30;99.90;;;;;;4812866;29;20043;-82
2022/12/07 04:19:49;;;;;;;10.38;0.77;;;3.30;99.90;;;;;;4798601;29;20053;-81
2022/12/07 04:22:15;;;;;;;6.55;1.55;;;3.30;99.90;;;;;;4827566;29;20046;-82
2022/12/07 04:24:41;;;;;;;5.38;0.52;;;3.30;99.90;;;;;;4796360;29;20073;-81
2022/12/07 04:27:06;;;;;;;7.75;1.60;;;3.30;99.90;;;;;;4812546;29;20151;-82
2022/12/07 04:29:32;;;;;;;5.18;0.40;;;3.30;99.90;;;;;;4796530;29;20099;-81
2022/12/07 04:31:57;;;;;;;4.18;0.77;;;3.20;99.90;;;;;;4816379;29;20046;-81
2022/12/07 04:34:23;;;;;;;8.48;0.80;;;3.20;99.90;;;;;;4811497;29;20050;-81
2022/12/07 04:36:49;;;;;;;7.10;0.40;;;3.20;99.90;;;;;;4796278;29;20073;-82
2022/12/07 04:39:23;;;;;;;8.43;0.70;;;3.20;99.90;;;;;;4810378;29;20098;-81
2022/12/07 04:41:49;;;;;;;6.65;0.60;;;3.30;99.90;;;;;;4815807;29;20386;-82
2022/12/07 04:44:16;;;;;;;9.75;0.80;;;3.30;99.90;;;;;;4811426;29;20038;-81
2022/12/07 04:46:42;;;;;;;5.80;0.98;;;3.40;99.90;;;;;;4812541;29;20041;-81
2022/12/07 04:49:08;;;;;;;8.60;0.47;;;3.40;99.90;;;;;;4814179;29;20905;-81
2022/12/07 04:51:34;;;;;;;6.18;0.60;;;3.50;99.90;;;;;;4811568;29;20067;-81
2022/12/07 04:53:59;;;;;;;6.55;0.50;;;3.50;99.90;;;;;;4825299;29;20038;-81
2022/12/07 04:56:26;;;;;;;7.75;0.60;;;3.50;99.90;;;;;;4810324;29;20037;-83
2022/12/07 04:58:53;;;;;;;5.07;0.45;;;3.50;99.90;;;;;;4812639;29;20532;-82
2022/12/07 05:01:19;;;;;;;6.13;0.47;;;3.50;99.90;;;;;;4821759;29;20129;-82
2022/12/07 05:03:45;;;;;;;6.20;0.30;;;3.40;99.90;;;;;;4809460;29;20042;-83
2022/12/07 05:06:11;;;;;;;8.23;1.20;;;3.70;99.90;;;;;;4805000;29;20159;-84
2022/12/07 05:08:41;;;;;;;6.80;0.60;;;3.40;99.90;;;;;;4805949;29;20049;-83
2022/12/07 05:11:08;;;;;;;9.25;0.43;;;3.40;99.90;;;;;;4822881;29;20050;-84
2022/12/07 05:13:34;;;;;;;8.52;0.80;;;3.40;99.90;;;;;;4810787;29;20045;-82
2022/12/07 05:16:00;;;;;;;5.38;0.63;;;3.40;99.90;;;;;;4808338;29;20052;-81
2022/12/07 05:18:25;;;;;;;8.43;0.82;;;3.30;99.90;;;;;;4810836;29;20041;-84
2022/12/07 05:21:11;;;;;;;4.25;0.60;;;3.40;99.90;;;;;;4806428;29;20042;-85
2022/12/07 05:23:37;;;;;;;7.20;0.95;;;3.30;99.90;;;;;;4806244;29;20593;-85
2022/12/07 05:26:03;;;;;;;9.25;0.70;;;3.20;99.90;;;;;;4789836;29;20057;-83
2022/12/07 05:28:29;;;;;;;4.65;0.50;;;3.10;99.90;;;;;;4814144;29;20107;-82
2022/12/07 05:30:54;;;;;;;2.85;0.40;;;3.20;99.90;;;;;;4812891;29;20483;-81
2022/12/07 05:33:20;;;;;;;8.60;0.70;;;3.10;99.90;;;;;;4808367;29;20480;-80
2022/12/07 05:35:45;;;;;;;11.00;1.73;;;3.00;99.90;;;;;;4806313;29;20042;-80
2022/12/07 05:38:11;;;;;;;6.75;0.43;;;3.00;99.90;;;;;;4809258;29;20081;-82
2022/12/07 05:40:37;;;;;;;5.88;1.15;;;3.00;99.90;;;;;;4794196;29;20069;-80
2022/12/07 05:43:02;;;;;;;6.55;0.75;;;2.90;99.90;;;;;;4808836;29;20065;-81
2022/12/07 05:45:28;;;;;;;4.07;0.40;;;3.00;99.90;;;;;;4820070;29;20041;-81
2022/12/07 05:47:53;;;;;;;6.45;0.50;;;2.90;99.90;;;;;;4804970;29;20103;-81
2022/12/07 05:50:19;;;;;;;9.02;0.88;;;2.90;99.90;;;;;;4809999;29;20049;-84
2022/12/07 05:52:45;;;;;;;4.25;0.40;;;3.00;99.90;;;;;;4825425;29;20034;-83
2022/12/07 05:55:10;;;;;;;4.63;0.60;;;2.90;99.90;;;;;;4795047;29;20034;-82
2022/12/07 05:57:36;;;;;;;9.13;0.75;;;3.00;99.90;;;;;;4811404;29;20535;-82
2022/12/07 06:00:03;;;;;;;10.82;0.70;;;3.20;99.90;;;;;;4827493;29;20117;-83
2022/12/07 06:03:17;;;;;;;10.35;0.77;;;3.00;99.90;;;;;;4805271;29;20448;-82
2022/12/07 06:05:49;;;;;;;6.05;0.50;;;3.00;99.90;;;;;;4811275;29;20045;-81
2022/12/07 06:08:15;;;;;;;11.38;1.17;;;3.00;99.90;;;;;;4807811;29;20050;-82
2022/12/07 06:10:41;;;;;;;5.43;0.70;;;3.00;99.90;;;;;;4792025;29;20038;-81
2022/12/07 06:13:08;;;;;;;6.18;1.10;;;3.00;99.90;;;;;;4811743;29;20091;-81
2022/12/07 06:15:36;;;;;;;16.65;1.17;;;3.00;99.90;;;;;;4809633;29;20040;-81
2022/12/07 06:18:01;;;;;;;10.18;0.75;;;3.10;99.90;;;;;;4807774;29;20054;-82
2022/12/07 06:20:27;;;;;;;8.00;1.10;;;3.10;99.90;;;;;;4793135;29;20626;-82
2022/12/07 06:22:52;;;;;;;11.38;0.70;;;3.20;99.90;;;;;;4805543;29;20042;-83
2022/12/07 06:25:18;;;;;;;6.22;0.70;;;3.20;99.90;;;;;;4823124;29;20117;-82
2022/12/07 06:27:44;;;;;;;3.65;0.52;;;3.30;99.90;;;;;;4795894;29;20047;-82
2022/12/07 06:30:09;;;;;;;8.77;0.68;;;3.30;99.90;;;;;;4794667;29;20041;-82
2022/12/07 06:32:36;;;;;;;6.97;0.77;;;3.30;99.90;;;;;;4809845;29;20434;-83
2022/12/07 06:35:02;;;;;;;6.72;0.50;;;3.30;99.90;;;;;;4809630;29;20043;-82
2022/12/07 06:37:28;;;;;;;10.52;0.60;;;3.40;99.90;;;;;;4811875;29;20073;-81
2022/12/07 06:39:54;;;;;;;10.25;0.60;;;3.40;99.90;;;;;;4830359;29;20042;-82
2022/12/07 06:42:19;;;;;;;5.43;0.50;;;3.30;99.90;;;;;;4808763;29;20046;-82
2022/12/07 06:44:45;;;;;;;7.63;1.00;;;3.30;99.90;;;;;;4812528;29;20043;-82
2022/12/07 06:47:11;;;;;;;5.43;0.70;;;3.30;99.90;;;;;;4791786;29;20046;-82
2022/12/07 06:49:37;;;;;;;7.10;0.80;;;3.30;99.90;;;;;;4797529;29;20133;-82
2022/12/07 06:52:04;;;;;;;6.00;0.57;;;3.30;99.90;;;;;;4826145;29;20097;-83
2022/12/07 06:54:30;;;;;;;11.45;1.10;;;3.30;99.90;;;;;;4825925;29;20073;-82
2022/12/07 06:56:56;;;;;;;8.93;0.88;;;3.30;99.90;;;;;;4806797;29;20062;-83
2022/12/07 06:59:21;;;;;;;7.75;1.38;;;3.30;99.90;;;;;;4808844;29;20042;-82
2022/12/07 07:01:47;;;;;;;9.50;0.95;;;3.30;99.90;;;;;;4825195;29;20108;-82
2022/12/07 07:04:12;;;;;;;7.93;0.55;;;3.40;99.90;;;;;;4793422;29;20607;-80
2022/12/07 07:06:38;;;;;;;8.18;0.68;;;3.40;99.90;;;;;;4813089;29;20069;-82
2022/12/07 07:09:03;;;;;;;12.27;0.90;;;3.50;99.90;;;;;;4804814;29;20120;-80
2022/12/07 07:11:29;;;;;;;13.15;0.90;;;3.90;99.90;;;;;;4824044;29;20072;-82
2022/12/07 07:13:56;;;;;;;7.00;0.80;;;3.90;99.90;;;;;;4811542;29;20046;-80
2022/12/07 07:16:23;;;;;;;6.47;0.60;;;3.60;99.90;;;;;;4791923;29;20047;-83
2022/12/07 07:18:48;;;;;;;7.55;0.65;;;3.60;99.90;;;;;;4808770;29;20129;-83
2022/12/07 07:21:14;;;;;;;7.90;1.27;;;3.60;99.90;;;;;;4811320;29;20076;-80
2022/12/07 07:23:39;;;;;;;6.93;0.65;;;3.50;99.90;;;;;;4827131;29;20050;-79
2022/12/07 07:26:05;;;;;;;5.70;0.50;;;3.50;99.90;;;;;;4810665;29;20055;-80
2022/12/07 07:28:30;;;;;;;3.45;0.60;;;3.40;99.90;;;;;;4809631;29;20137;-83
2022/12/07 07:30:56;;;;;;;7.65;0.50;;;3.30;99.90;;;;;;4809407;29;20077;-80
2022/12/07 07:33:21;;;;;;;6.07;0.75;;;3.30;99.90;;;;;;4808170;29;20125;-80
2022/12/07 07:35:47;;;;;;;5.07;0.82;;;3.30;99.90;;;;;;4811135;29;20555;-82
2022/12/07 07:38:13;;;;;;;10.77;0.70;;;3.20;99.90;;;;;;4809650;29;20045;-80
2022/12/07 07:40:38;;;;;;;7.43;0.40;;;4.20;99.90;;;;;;4817732;29;20042;-80
2022/12/07 07:43:04;;;;;;;6.15;0.70;;;3.20;99.90;;;;;;4813602;29;20042;-80
2022/12/07 07:45:29;;;;;;;6.30;0.80;;;3.20;99.90;;;;;;4811536;29;20129;-81
2022/12/07 07:47:55;;;;;;;10.00;0.70;;;3.30;99.90;;;;;;4810936;29;20078;-81
2022/12/07 07:50:21;;;;;;;7.20;0.52;;;3.70;99.90;;;;;;4816319;29;20039;-82
2022/12/07 07:52:47;;;;;;;7.68;0.73;;;3.30;99.90;;;;;;4825642;29;20049;-81
2022/12/07 07:55:13;;;;;;;6.80;0.88;;;3.40;99.90;;;;;;4814136;29;20042;-81
2022/12/07 07:57:40;;;;;;;4.32;0.60;;;3.30;99.90;;;;;;4776835;29;20050;-86
2022/12/07 08:00:12;;;;;;;6.45;1.10;;;3.40;99.90;;;;;;4814489;29;20042;-86
2022/12/07 08:02:37;;;;;;;4.40;0.40;;;3.40;99.90;;;;;;4804502;29;20046;-81
2022/12/07 08:05:03;;;;;;;3.78;0.77;;;3.40;99.90;;;;;;4806151;29;20061;-85
2022/12/07 08:07:29;;;;;;;13.80;1.00;;;3.40;99.90;;;;;;4805138;29;20050;-87
2022/12/07 08:09:55;;;;;;;6.32;1.05;;;3.40;99.90;;;;;;4823075;29;20046;-82
2022/12/07 08:12:20;;;;;;;8.43;1.23;;;3.50;99.90;;;;;;4807939;29;20061;-82
2022/12/07 08:14:46;;;;;;;7.93;0.88;;;3.50;99.90;;;;;;4803849;29;20084;-81
2022/12/07 08:17:12;;;;;;;16.80;1.15;;;3.50;99.90;;;;;;4805452;29;20053;-81
2022/12/07 08:19:38;;;;;;;10.05;1.02;;;3.40;99.90;;;;;;4802492;29;20050;-86
2022/12/07 08:22:04;;;;;;;8.82;1.58;;;3.50;99.90;;;;;;4807290;29;20053;-81
2022/12/07 08:24:29;;;;;;;4.43;1.00;;;3.50;99.90;;;;;;4806274;29;20068;-87
2022/12/07 08:26:55;;;;;;;5.00;1.05;;;3.40;99.90;;;;;;4788302;29;20042;-84
2022/12/07 08:29:21;;;;;;;7.38;0.80;;;3.40;99.90;;;;;;4821029;29;20498;-85
2022/12/07 08:31:46;;;;;;;6.65;1.30;;;3.30;99.90;;;;;;4792752;29;20050;-81
2022/12/07 08:34:13;;;;;;;12.70;1.45;;;3.30;99.90;;;;;;4810279;29;20125;-82
2022/12/07 08:36:39;;;;;;;9.48;0.88;;;3.40;99.90;;;;;;4806016;29;20047;-81
2022/12/07 08:39:05;;;;;;;6.72;0.70;;;3.30;99.90;;;;;;4813512;29;20073;-81
2022/12/07 08:41:31;;;;;;;7.53;0.80;;;3.50;99.90;;;;;;4808077;29;20579;-81
2022/12/07 08:43:57;;;;;;;4.40;0.60;;;3.50;99.90;;;;;;4804824;29;20207;-86
2022/12/07 08:46:37;;;;;;;8.45;1.98;;;3.60;99.90;;;;;;4807386;29;20116;-81
2022/12/07 08:49:11;;;;;;;8.82;0.70;;;3.60;99.90;;;;;;4808431;29;20055;-82
2022/12/07 08:51:38;;;;;;;6.10;1.00;;;3.60;99.90;;;;;;4803896;29;20073;-81
2022/12/07 08:54:08;;;;;;;14.02;0.77;;;3.60;99.90;;;;;;4809211;29;20042;-83
2022/12/07 08:56:35;;;;;;;9.68;1.05;;;3.60;99.90;;;;;;4804948;29;20050;-85
2022/12/07 08:59:01;;;;;;;6.70;1.20;;;3.60;99.90;;;;;;4794066;29;20057;-86
2022/12/07 09:01:27;;;;;;;8.30;1.10;;;3.60;99.90;;;;;;4805482;29;20038;-86
2022/12/07 09:03:53;;;;;;;10.13;1.13;;;3.60;99.90;;;;;;4816140;29;20054;-82
2022/12/07 09:06:18;;;;;;;5.40;0.77;;;3.60;99.90;;;;;;4808119;29;20065;-82
2022/12/07 09:12:28;;;;;;;9.77;1.02;;;3.30;99.90;;;;;;4823632;29;20068;-84
2022/12/07 09:15:01;;;;;;;9.10;0.85;;;3.50;99.90;;;;;;4791475;29;20798;-81
2022/12/07 09:18:17;;;;;;;7.95;0.95;;;3.60;99.90;;;;;;4821279;29;20529;-84
2022/12/07 09:21:39;;;;;;;4.00;0.90;;;3.70;99.90;;;;;;4787925;29;20048;-86
2022/12/07 09:24:54;;;;;;;6.40;1.10;;;3.60;99.90;;;;;;4820512;29;20042;-81
2022/12/07 09:28:04;;;;;;;6.32;0.80;;;3.70;99.90;;;;;;4800034;29;20057;-84
2022/12/07 09:37:53;;;;;;;8.55;1.63;;;4.10;99.90;;;;;;4781057;29;20686;-82
2022/12/07 09:40:21;;;;;;;12.10;2.05;;;4.30;99.90;;;;;;4787470;29;20059;-83
2022/12/07 09:42:50;;;;;;;4.28;0.82;;;4.30;99.90;;;;;;4800837;29;20447;-83
2022/12/07 09:45:54;;;;;;;10.32;1.45;;;4.40;99.90;;;;;;4810043;29;20058;-82
2022/12/07 09:49:32;;;;;;;9.32;1.13;;;4.50;99.90;;;;;;4803412;29;20073;-82
2022/12/07 09:52:25;;;;;;;8.38;0.95;;;4.60;99.90;;;;;;4758737;30;20118;-82
2022/12/07 09:59:42;;;;;;;7.72;0.98;;;4.70;99.90;;;;;;4751176;30;20408;-83
2022/12/07 10:02:41;;;;;;;9.50;1.23;;;4.70;99.90;;;;;;4733330;30;20126;-83
2022/12/07 10:05:20;;;;;;;7.53;0.80;;;4.10;99.90;;;;;;4721058;30;20087;-84
2022/12/07 10:08:20;;;;;;;11.52;1.45;;;4.70;99.90;;;;;;4734166;30;20115;-83
2022/12/07 10:10:58;;;;;;;9.45;1.27;;;4.40;99.90;;;;;;4751360;30;20040;-83
2022/12/07 10:40:58;;;;;;;7.65;1.42;;;5.20;99.90;;;;;;4800182;29;20041;-85
2022/12/07 10:48:01;;;;;;;8.95;0.57;;;5.40;99.90;;;;;;4820118;29;20061;-84
2022/12/07 10:55:12;;;;;;;4.38;0.90;;;5.60;99.90;;;;;;4784666;29;20605;-82
2022/12/07 10:58:51;;;;;;;8.40;1.42;;;5.60;99.90;;;;;;4773260;29;20063;-82
2022/12/07 11:26:59;;;;;;;5.28;0.73;;;6.00;99.90;;;;;;4733251;30;20075;-84
2022/12/07 11:29:44;;;;;;;9.63;1.15;;;6.00;99.90;;;;;;4771861;29;20058;-83
2022/12/07 11:32:31;;;;;;;5.90;1.20;;;5.90;99.90;;;;;;4803584;29;20050;-83
2022/12/07 11:35:37;;;;;;;5.60;0.95;;;5.90;99.90;;;;;;4794563;29;20161;-84
2022/12/07 11:38:44;;;;;;;6.60;0.60;;;5.90;99.90;;;;;;4821437;29;20410;-82
2022/12/07 11:41:13;;;;;;;;;;;5.80;99.90;;;;;;4790164;29;20043;-82
2022/12/07 11:44:05;;;;;;;5.25;0.55;;;5.90;99.90;;;;;;4806190;29;19934;-82
2022/12/07 11:46:54;;;;;;;4.13;0.60;;;5.90;99.90;;;;;;4806613;29;20050;-81
2022/12/07 11:49:38;;;;;;;8.30;1.13;;;5.90;99.90;;;;;;4814293;29;20655;-82
2022/12/07 11:52:46;;;;;;;6.75;0.90;;;6.00;99.90;;;;;;4808990;29;20042;-82
2022/12/07 11:55:39;;;;;;;5.82;0.75;;;6.10;99.90;;;;;;4794868;29;20111;-83
2022/12/07 11:58:32;;;;;;;10.95;1.15;;;6.10;99.90;;;;;;4824459;29;20136;-85
2022/12/07 12:01:17;;;;;;;3.30;0.93;;;6.30;99.90;;;;;;4811120;29;20046;-85
2022/12/07 12:03:57;;;;;;;5.72;0.63;;;6.40;99.90;;;;;;4810351;29;20094;-82
2022/12/07 12:06:23;;;;;;;8.40;0.77;;;6.60;99.90;;;;;;4797476;29;20046;-83
2022/12/07 12:08:54;;;;;;;9.65;2.35;;;6.50;99.90;;;;;;4808331;29;20061;-81
2022/12/07 12:11:51;;;;;;;6.80;0.77;;;6.60;99.90;;;;;;4810877;29;20046;-84
2022/12/07 12:14:35;;;;;;;6.15;1.63;;;6.60;99.90;;;;;;4805272;29;20095;-82
2022/12/07 12:17:29;;;;;;;5.70;0.88;;;6.70;99.90;;;;;;4806224;29;20078;-84
2022/12/07 12:20:01;;;;;;;4.90;0.77;;;6.70;99.90;;;;;;4809083;29;20058;-81
2022/12/07 12:22:38;;;;;;;6.72;0.80;;;6.60;99.90;;;;;;4807926;29;20034;-82
2022/12/07 12:25:07;;;;;;;6.65;0.70;;;6.70;99.90;;;;;;4838216;29;20551;-82
2022/12/07 12:27:38;;;;;;;5.13;1.90;;;6.70;99.90;;;;;;4807494;29;20042;-83
2022/12/07 12:30:23;;;;;;;7.75;0.80;;;7.10;99.90;;;;;;4822025;29;20051;-83
2022/12/07 12:33:13;;;;;;;7.30;0.98;;;6.80;99.90;;;;;;4805474;29;20042;-85
2022/12/07 12:35:39;;;;;;;4.97;0.75;;;6.80;99.90;;;;;;4808216;29;20130;-84
2022/12/07 12:38:27;;;;;;;5.60;0.65;;;6.80;99.90;;;;;;4809561;29;20058;-82
2022/12/07 12:40:54;;;;;;;8.05;1.10;;;6.90;99.90;;;;;;4790449;29;20553;-85
2022/12/07 12:43:52;;;;;;;7.40;0.88;;;6.80;99.90;;;;;;4817983;29;20050;-83
2022/12/07 12:46:43;;;;;;;7.50;0.65;;;6.80;99.90;;;;;;4791989;29;20047;-86
2022/12/07 12:49:21;;;;;;;4.13;0.88;;;6.70;99.90;;;;;;4790721;29;20085;-83
2022/12/07 12:51:51;;;;;;;5.63;0.60;;;6.70;99.90;;;;;;4836899;29;20050;-85
2022/12/07 12:54:21;;;;;;;10.45;1.17;;;6.60;99.90;;;;;;4808602;29;20089;-82
2022/12/07 12:56:52;;;;;;;6.15;0.50;;;6.50;99.90;;;;;;4803907;29;20046;-85
2022/12/07 12:59:30;;;;;;;5.85;0.68;;;6.40;99.90;;;;;;4818441;29;20125;-83
2022/12/07 13:02:16;;;;;;;2.65;0.30;;;6.30;99.90;;;;;;4807065;29;20081;-83
2022/12/07 13:04:51;;;;;;;2.90;0.70;;;6.00;99.90;;;;;;4802948;29;20058;-85
2022/12/07 13:07:44;;;;;;;1.42;0.15;;;5.90;99.90;;;;;;4838042;29;20106;-83
2022/12/07 13:10:34;;;;;;;1.85;0.13;;;5.80;99.90;;;;;;4837729;29;20042;-83
2022/12/07 13:13:13;;;;;;;3.85;0.20;;;6.10;99.90;;;;;;4789476;29;20042;-87
2022/12/07 13:15:43;;;;;;;4.13;0.30;;;5.50;99.90;;;;;;4801670;29;20050;-83
2022/12/07 13:18:27;;;;;;;0.93;0.30;;;5.50;99.90;;;;;;4803949;29;20050;-85
2022/12/07 13:20:59;;;;;;;2.20;0.30;;;5.40;99.90;;;;;;4803562;29;20110;-83
2022/12/07 13:23:37;;;;;;;2.45;0.20;;;5.50;99.90;;;;;;4789474;29;20038;-84
2022/12/07 13:26:32;;;;;;;3.08;0.20;;;5.40;99.90;;;;;;4805718;29;20046;-86
2022/12/07 13:29:20;;;;;;;3.70;0.50;;;5.40;99.90;;;;;;4803342;29;20049;-84
2022/12/07 13:31:53;;;;;;;3.72;0.20;;;5.30;99.90;;;;;;4805471;29;20034;-83
2022/12/07 13:34:35;;;;;;;6.72;0.80;;;5.30;99.90;;;;;;4803902;29;20058;-86
2022/12/07 13:37:29;;;;;;;3.05;0.38;;;5.20;99.90;;;;;;4795248;29;20417;-85
2022/12/07 13:40:00;;;;;;;2.80;0.25;;;5.20;99.90;;;;;;4822502;29;20039;-84
2022/12/07 13:42:29;;;;;;;1.17;0.30;;;5.20;99.90;;;;;;4808356;29;20060;-82
2022/12/07 13:44:56;;;;;;;1.55;0.20;;;5.20;99.90;;;;;;4789670;29;21156;-84
2022/12/07 13:47:36;;;;;;;2.47;0.28;;;5.30;99.90;;;;;;4805166;29;20089;-82
2022/12/07 13:50:28;;;;;;;4.20;0.40;;;5.20;99.90;;;;;;4815792;29;20038;-83
2022/12/07 13:53:00;;;;;;;2.13;0.73;;;5.20;99.90;;;;;;4805534;29;20042;-82
2022/12/07 13:55:26;;;;;;;2.17;0.22;;;5.10;99.90;;;;;;4805451;29;20046;-86
2022/12/07 13:57:53;;;;;;;2.72;0.65;;;5.10;99.90;;;;;;4790750;29;20743;-83
2022/12/07 14:00:29;;;;;;;3.33;0.30;;;5.10;99.90;;;;;;4805121;29;20051;-82
2022/12/07 14:02:59;;;;;;;2.50;0.20;;;5.10;99.90;;;;;;4805088;29;20046;-82
2022/12/07 14:05:28;;;;;;;3.65;0.40;;;5.10;99.90;;;;;;4820171;29;20046;-85
2022/12/07 14:08:05;;;;;;;7.10;0.63;;;5.10;99.90;;;;;;4804001;29;20058;-86
2022/12/07 14:10:35;;;;;;;3.38;0.25;;;5.10;99.90;;;;;;4803204;29;20095;-85
2022/12/07 14:13:24;;;;;;;4.25;0.32;;;5.10;99.90;;;;;;4803774;29;20498;-85
2022/12/07 14:15:51;;;;;;;4.80;0.30;;;5.10;99.90;;;;;;4805136;29;20129;-83
2022/12/07 14:18:49;;;;;;;2.88;0.40;;;5.10;99.90;;;;;;4804940;29;20054;-84
2022/12/07 14:21:24;;;;;;;5.30;0.30;;;5.10;99.90;;;;;;4735176;30;20063;-84
2022/12/07 14:24:18;;;;;;;7.85;0.63;;;5.30;99.90;;;;;;4750570;29;20058;-84
2022/12/07 14:26:46;;;;;;;2.22;0.20;;;5.10;99.90;;;;;;4812050;29;20082;-83
2022/12/07 14:29:28;;;;;;;2.40;0.30;;;5.00;99.90;;;;;;4809666;29;21015;-87
2022/12/07 14:31:56;;;;;;;3.47;0.43;;;5.00;99.90;;;;;;4808753;29;20050;-83
2022/12/07 14:34:23;;;;;;;3.60;0.80;;;5.00;99.90;;;;;;4809394;29;20093;-84
2022/12/07 14:36:52;;;;;;;3.78;0.38;;;5.00;99.90;;;;;;4823648;29;20083;-84
2022/12/07 14:39:21;;;;;;;2.25;0.40;;;4.90;99.90;;;;;;4805579;29;20050;-87
2022/12/07 14:41:52;;;;;;;2.97;0.30;;;4.90;99.90;;;;;;4822160;29;20660;-85
2022/12/07 14:44:20;;;;;;;2.58;0.30;;;4.90;99.90;;;;;;4845061;29;20399;-87